sensor_id;sensor_type;location;lat;lon;timestamp;pressure;altitude;pressure_sealevel;temperature;humidity
76331;BME280;65148;51.912;15.570;2023-07-20T00:01:22;100948.46;;;17.04;100.00
76331;BME280;65148;51.912;15.570;2023-07-20T00:16:23;100922.71;;;17.26;100.00
76331;BME280;65148;51.912;15.570;2023-07-20T00:31:24;100897.24;;;17.46;100.00
76331;BME280;65148;51.912;15.570;2023-07-20T00:46:44;100890.56;;;17.56;100.00
76331;BME280;65148;51.912;15.570;2023-07-20T01:01:45;100892.98;;;17.66;100.00
76331;BME280;65148;51.912;15.570;2023-07-20T01:16:46;100896.05;;;17.65;100.00
76331;BME280;65148;51.912;15.570;2023-07-20T01:31:52;100915.53;;;17.51;100.00
76331;BME280;65148;51.912;15.570;2023-07-20T01:47:07;100950.91;;;16.97;100.00
76331;BME280;65148;51.912;15.570;2023-07-20T02:02:08;100954.55;;;16.58;100.00
76331;BME280;65148;51.912;15.570;2023-07-20T02:17:09;100968.69;;;16.83;100.00
76331;BME280;65148;51.912;15.570;2023-07-20T02:32:11;100955.74;;;16.83;100.00
76331;BME280;65148;51.912;15.570;2023-07-20T02:47:30;100953.17;;;16.87;100.00
76331;BME280;65148;51.912;15.570;2023-07-20T03:02:31;100967.55;;;16.92;100.00
76331;BME280;65148;51.912;15.570;2023-07-20T03:17:32;100979.87;;;16.86;100.00
76331;BME280;65148;51.912;15.570;2023-07-20T03:32:33;100970.77;;;16.68;100.00
76331;BME280;65148;51.912;15.570;2023-07-20T03:47:53;100969.59;;;16.43;100.00
76331;BME280;65148;51.912;15.570;2023-07-20T04:02:54;100977.99;;;16.56;100.00
76331;BME280;65148;51.912;15.570;2023-07-20T04:17:55;100986.72;;;16.49;100.00
76331;BME280;65148;51.912;15.570;2023-07-20T04:32:56;100979.37;;;16.75;100.00
76331;BME280;65148;51.912;15.570;2023-07-20T04:48:16;100989.70;;;16.78;100.00
76331;BME280;65148;51.912;15.570;2023-07-20T05:03:18;101002.01;;;16.81;100.00
76331;BME280;65148;51.912;15.570;2023-07-20T05:18:19;100997.45;;;16.68;100.00
76331;BME280;65148;51.912;15.570;2023-07-20T05:33:21;101000.73;;;16.87;100.00
76331;BME280;65148;51.912;15.570;2023-07-20T05:48:39;101019.45;;;16.76;100.00
76331;BME280;65148;51.912;15.570;2023-07-20T06:03:40;101026.61;;;17.12;100.00
76331;BME280;65148;51.912;15.570;2023-07-20T06:18:41;101030.98;;;17.22;100.00
76331;BME280;65148;51.912;15.570;2023-07-20T06:33:42;101037.60;;;17.64;100.00
76331;BME280;65148;51.912;15.570;2023-07-20T06:49:06;101067.23;;;17.75;100.00
76331;BME280;65148;51.912;15.570;2023-07-20T07:04:08;101069.18;;;17.58;100.00
76331;BME280;65148;51.912;15.570;2023-07-20T07:19:09;101074.29;;;18.11;100.00
76331;BME280;65148;51.912;15.570;2023-07-20T07:34:10;101085.70;;;18.39;100.00
76331;BME280;65148;51.912;15.570;2023-07-20T07:49:26;101092.31;;;18.00;100.00
76331;BME280;65148;51.912;15.570;2023-07-20T08:04:28;101114.05;;;17.93;100.00
76331;BME280;65148;51.912;15.570;2023-07-20T08:19:29;101093.67;;;18.32;100.00
76331;BME280;65148;51.912;15.570;2023-07-20T08:34:31;101117.90;;;18.93;99.63
76331;BME280;65148;51.912;15.570;2023-07-20T08:49:49;101108.12;;;19.25;96.07
76331;BME280;65148;51.912;15.570;2023-07-20T09:04:50;101102.60;;;19.88;95.36
76331;BME280;65148;51.912;15.570;2023-07-20T09:19:51;101111.29;;;20.44;82.89
76331;BME280;65148;51.912;15.570;2023-07-20T09:34:52;101104.59;;;21.05;71.32
76331;BME280;65148;51.912;15.570;2023-07-20T09:50:12;101096.19;;;20.77;75.12
76331;BME280;65148;51.912;15.570;2023-07-20T10:05:13;101097.29;;;21.65;73.97
76331;BME280;65148;51.912;15.570;2023-07-20T10:20:16;101092.81;;;22.16;71.37
76331;BME280;65148;51.912;15.570;2023-07-20T10:35:18;101104.14;;;20.79;75.09
76331;BME280;65148;51.912;15.570;2023-07-20T10:50:33;101090.10;;;21.48;75.53
76331;BME280;65148;51.912;15.570;2023-07-20T11:05:40;101081.34;;;22.02;67.45
76331;BME280;65148;51.912;15.570;2023-07-20T11:20:42;101073.14;;;22.37;66.25
76331;BME280;65148;51.912;15.570;2023-07-20T11:35:44;101069.01;;;22.31;57.41
76331;BME280;65148;51.912;15.570;2023-07-20T11:51:00;101077.76;;;22.02;64.74
76331;BME280;65148;51.912;15.570;2023-07-20T12:06:07;101070.70;;;22.51;55.37
76331;BME280;65148;51.912;15.570;2023-07-20T12:21:09;101074.63;;;22.03;57.89
76331;BME280;65148;51.912;15.570;2023-07-20T12:36:38;101068.67;;;21.89;59.73
76331;BME280;65148;51.912;15.570;2023-07-20T12:51:39;101063.10;;;22.80;58.09
76331;BME280;65148;51.912;15.570;2023-07-20T13:06:40;101068.34;;;23.01;50.25
76331;BME280;65148;51.912;15.570;2023-07-20T13:21:42;101068.38;;;22.69;50.44
76331;BME280;65148;51.912;15.570;2023-07-20T13:37:00;101076.45;;;22.27;54.27
76331;BME280;65148;51.912;15.570;2023-07-20T13:52:01;101074.34;;;23.03;52.10
76331;BME280;65148;51.912;15.570;2023-07-20T14:07:02;101070.10;;;23.09;52.49
76331;BME280;65148;51.912;15.570;2023-07-20T14:22:04;101086.26;;;23.03;50.46
76331;BME280;65148;51.912;15.570;2023-07-20T14:37:19;101094.23;;;22.42;53.69
76331;BME280;65148;51.912;15.570;2023-07-20T14:52:21;101078.30;;;22.86;51.95
76331;BME280;65148;51.912;15.570;2023-07-20T15:12:56;101077.93;;;22.72;53.74
76331;BME280;65148;51.912;15.570;2023-07-20T15:27:57;101077.35;;;22.47;55.15
76331;BME280;65148;51.912;15.570;2023-07-20T15:42:58;101080.03;;;22.28;53.99
76331;BME280;65148;51.912;15.570;2023-07-20T15:58:16;101079.27;;;22.93;50.42
76331;BME280;65148;51.912;15.570;2023-07-20T16:13:17;101089.68;;;22.34;52.73
76331;BME280;65148;51.912;15.570;2023-07-20T16:28:18;101090.92;;;22.20;51.08
76331;BME280;65148;51.912;15.570;2023-07-20T16:43:19;101090.36;;;21.99;55.60
76331;BME280;65148;51.912;15.570;2023-07-20T16:58:37;101072.25;;;22.49;53.25
76331;BME280;65148;51.912;15.570;2023-07-20T17:13:38;101088.88;;;22.80;50.91
76331;BME280;65148;51.912;15.570;2023-07-20T17:28:39;101093.24;;;22.18;53.98
76331;BME280;65148;51.912;15.570;2023-07-20T17:43:40;101090.39;;;22.15;52.59
76331;BME280;65148;51.912;15.570;2023-07-20T17:58:58;101094.40;;;22.02;51.61
76331;BME280;65148;51.912;15.570;2023-07-20T18:13:59;101102.34;;;21.47;51.53
76331;BME280;65148;51.912;15.570;2023-07-20T18:29:01;101098.59;;;21.28;52.35
76331;BME280;65148;51.912;15.570;2023-07-20T18:44:02;101115.21;;;20.91;54.00
76331;BME280;65148;51.912;15.570;2023-07-20T18:59:17;101140.02;;;20.63;54.57
76331;BME280;65148;51.912;15.570;2023-07-20T19:14:19;101143.62;;;20.31;56.92
76331;BME280;65148;51.912;15.570;2023-07-20T19:29:20;101161.16;;;19.60;64.20
76331;BME280;65148;51.912;15.570;2023-07-20T19:44:21;101171.05;;;18.82;69.05
76331;BME280;65148;51.912;15.570;2023-07-20T19:59:39;101174.80;;;18.05;76.29
76331;BME280;65148;51.912;15.570;2023-07-20T20:14:40;101175.42;;;17.59;78.13
76331;BME280;65148;51.912;15.570;2023-07-20T20:29:42;101185.86;;;17.13;81.33
76331;BME280;65148;51.912;15.570;2023-07-20T20:44:43;101192.83;;;16.71;84.08
76331;BME280;65148;51.912;15.570;2023-07-20T21:00:02;101202.73;;;16.28;89.28
76331;BME280;65148;51.912;15.570;2023-07-20T21:15:08;101210.78;;;16.02;89.55
76331;BME280;65148;51.912;15.570;2023-07-20T21:30:10;101203.09;;;15.68;91.76
76331;BME280;65148;51.912;15.570;2023-07-20T21:45:11;101215.40;;;15.43;93.29
76331;BME280;65148;51.912;15.570;2023-07-20T22:00:25;101227.31;;;15.11;97.47
76331;BME280;65148;51.912;15.570;2023-07-20T22:15:26;101233.19;;;14.91;96.15
76331;BME280;65148;51.912;15.570;2023-07-20T22:30:27;101245.84;;;14.59;97.78
76331;BME280;65148;51.912;15.570;2023-07-20T22:45:28;101244.69;;;14.47;98.07
76331;BME280;65148;51.912;15.570;2023-07-20T23:00:48;101230.42;;;14.12;99.69
76331;BME280;65148;51.912;15.570;2023-07-20T23:15:50;101235.01;;;13.98;100.00
76331;BME280;65148;51.912;15.570;2023-07-20T23:30:51;101230.90;;;13.82;100.00
76331;BME280;65148;51.912;15.570;2023-07-20T23:45:52;101221.26;;;13.66;100.00
